Tiempo atmosférico en la estación meteorológica de Alcalá del Júcar, Albacete (680 m.)



Fecha
DESCASC
Temp. máxima en grados centígrados (hora)
DESCASC
Temp. mínima en grados centígrados (hora)
DESCASC
Temp. media en grados centígrados
DESCASC
Racha de viento máxima en m/sg (hora)
DESCASC
Velocidad máxima media en intervalos de 10 minutos(hora)
DESCASC
Precipitaciones diarias en mm
DESCASC
Precipitaciones de 00:00 a 06:00 en mm
DESCASC
Precipitaciones de 06:00 a 12:00 en mm
DESCASC
Precipitaciones de 12:00 a 18:00 en mm
DESCASC
Precipitaciones de 18:00 a 24:00 en mm
DESCASC
17-08-2018 32.6 (16:40) 18 (08:10) 25.3 12.78 (17:50) 6.11 (17:50) 1.2 0 0 0.8 0.4
16-08-2018 28.2 (17:40) 20.9 (08:20) 24.6 5.83 (18:40) 3.06 (23:30) 1.4 0 1.2 0.2 0
15-08-2018 32.7 (17:30) 21.1 (02:40) 26.9 10.83 (18:40) 4.72 (18:50) 0 0 0 0 0
14-08-2018 35 (16:10) 19.2 (05:30) 27.1 8.06 (19:50) 4.17 (19:40) 0 0 0 0 0
13-08-2018 34.6 (16:30) 18.6 (08:20) 26.6 10.28 (02:00) 4.44 (02:00) 0 0 0 0 0
12-08-2018 33.3 (15:10) 19.2 (00:00) 26.3 8.89 (23:59) 4.17 (23:59) 0 0 0 0 0
11-08-2018 33.1 (16:30) 19.8 (00:00) 26.4 13.89 (18:40) 7.5 (18:40) 2.2 0 0 0 2.2
10-08-2018 31.8 (15:30) 20.6 (00:00) 26.2 11.11 (18:40) 4.17 (14:00) 0 0 0 0 0
09-08-2018 34.1 (17:50) 19.8 (00:00) 26.9 9.17 (16:20) 4.72 (15:10) 0 0 0 0 0
08-08-2018 34.8 (14:20) 18.2 (00:00) 26.5 13.89 (17:40) 6.67 (17:50) 0.4 0 0 0.4 0
07-08-2018 37.9 (16:20) 19.5 (00:00) 28.7 15.28 (19:10) 7.5 (19:10) 0.2 0 0 0 0.2
06-08-2018 39.1 (17:30) 22.7 (00:00) 30.9 16.39 (19:50) 9.44 (19:50) 1 0 0 0 1
05-08-2018 38 (16:30) 20.3 (00:00) 29.1 11.11 (19:50) 6.39 (19:50) 0 0 0 0 0
04-08-2018 38.2 (15:40) 19.9 (07:20) 29.1 9.72 (19:40) 4.44 (19:50) 0 0 0 0 0
03-08-2018 40 (16:30) 20.5 (00:00) 30.3 8.89 (20:10) 3.89 (18:30) 0 0 0 0 0
02-08-2018 38.7 (16:00) 18.9 (00:00) 28.8 9.44 (20:30) 5 (20:30) 0 0 0 0 0
01-08-2018 38.3 (15:20) 19.7 (06:50) 29 9.17 (18:50) 5 (19:00) 0 0 0 0 0
31-07-2018 38.6 (16:30) 18.3 (00:00) 28.4 10 (20:20) 6.11 (20:50) 0 0 0 0 0
30-07-2018 36.5 (17:00) 18.2 (00:00) 27.4 8.33 (22:50) 3.89 (22:40) 0 0 0 0 0
29-07-2018 35.2 (17:10) 17.9 (00:00) 26.6 11.39 (17:50) 5 (19:00) 0 0 0 0 0
28-07-2018 36.2 (16:40) 19.1 (00:00) 27.7 8.89 (13:20) 4.44 (13:10) 0 0 0 0 0
27-07-2018 37.7 (16:00) 18.2 (00:00) 28 8.61 (21:10) 4.44 (21:10) 0 0 0 0 0
26-07-2018 37.3 (17:00) 17.9 (00:00) 27.6 9.17 (21:10) 5 (21:10) 0 0 0 0 0
25-07-2018 35.7 (17:10) 17.5 (00:00) 26.6 8.89 (18:10) 4.44 (17:20) 0 0 0 0 0
24-07-2018 35.9 (17:30) 19.3 (00:00) 27.6 8.33 (15:00) 3.89 (14:00) 0 0 0 0 0
23-07-2018 35.6 (16:50) 18.2 (00:00) 26.9 10.28 (21:30) 4.44 (22:40) 0 0 0 0 0
22-07-2018 31.8 (16:20) 20.1 (00:00) 25.9 9.72 (18:00) 4.17 (16:10) 0 0 0 0 0
21-07-2018 33.8 (16:30) 16.9 (00:00) 25.3 8.33 (17:30) 3.89 (16:00) 0 0 0 0 0
20-07-2018 35.2 (17:30) 16.5 (00:00) 25.9 11.67 (18:10) 5 (19:40) 0 0 0 0 0

Gráficas

Temp. máximas Temp. mínimas Temp. medias Precipitaciones Rachas de viento máximas Velocidades máximas media en intervalos de 10 minutos

Datos horarios

Fecha y hora oficial Temperatura (ºC) Velocidad del viento (km/h) Dirección del viento Racha (km/h) Dirección de racha Precipitación (mm) Presión (hPa) Tendencia (hPa) Humedad (%)
2018-08-18 23:00:00 19.5 7 Este 17 Este 0 -- -- 89
2018-08-18 22:00:00 20 8 Este 16 Nordeste 0.2 -- -- 87
2018-08-18 21:00:00 21.2 7 Este 27 Este 4.8 -- -- 82
2018-08-18 20:00:00 23.5 9 Este 27 Nordeste 0 -- -- 65
2018-08-18 19:00:00 26.1 11 Este 26 Sudeste 0 -- -- 57
2018-08-18 18:00:00 27.2 11 Este 27 Sudeste 0 -- -- 54
2018-08-18 17:00:00 28.6 11 Este 24 Sudeste 0 -- -- 49
2018-08-18 16:00:00 27.9 8 Este 21 Sudeste 0 -- -- 50
2018-08-18 15:00:00 26 7 Este 15 Sudeste 0 -- -- 55
2018-08-18 14:00:00 25.2 5 Este 16 Sur 0 -- -- 58
2018-08-18 13:00:00 24.3 8 Sur 17 Sudeste 0 -- -- 60
2018-08-18 12:00:00 23.5 8 Este 24 Sudeste 0 -- -- 63
2018-08-18 11:00:00 21.4 8 Este 19 Sudeste 0 -- -- 71
2018-08-18 10:00:00 20.1 8 Este 22 Este 0 -- -- 77
2018-08-18 09:00:00 19.1 4 Este 11 Sudeste 0 -- -- 83
2018-08-18 08:00:00 18.1 5 Este 14 Sudeste 0 -- -- 85
2018-08-18 07:00:00 17.9 4 Este 12 Este 0 -- -- 88
2018-08-18 06:00:00 17.9 4 Nordeste 14 Este 0 -- -- 88
2018-08-18 05:00:00 17.9 7 Nordeste 17 Nordeste 0 -- -- 86
2018-08-18 04:00:00 17.8 8 Nordeste 18 Este 0 -- -- 85
2018-08-18 03:00:00 18.5 5 Este 15 Este 0 -- -- 78
2018-08-18 02:00:00 18.9 4 Nordeste 12 Nordeste 0 -- -- 80
2018-08-18 01:00:00 19.4 5 Nordeste 20 Este 0 -- -- 81
2018-08-18 00:00:00 19.9 8 Este 19 Nordeste 0 -- -- 81
2018-08-17 23:00:00 20.2 7 Este 17 Nordeste 0 -- -- 75
2018-08-17 22:00:00 20.9 4 Este 14 Sudeste 0 -- -- 75
2018-08-17 21:00:00 21.6 6 Noroeste 11 Noroeste 0 -- -- 79
2018-08-17 20:00:00 21.4 3 Este 12 Sudeste 0 -- -- 76
2018-08-17 19:00:00 21 4 Sudeste 32 Sudeste 0.4 -- -- 78
2018-08-17 18:00:00 22.1 15 Este 46 Nordeste 0.8 -- -- 74
2018-08-17 17:00:00 32 8 Sudoeste 20 Sudeste 0 -- -- 31
2018-08-17 16:00:00 31.5 6 Sudoeste 16 Sudeste 0 -- -- 32
2018-08-17 15:00:00 31.2 5 Nordeste 19 Nordeste 0 -- -- 34
2018-08-17 14:00:00 29.9 7 Nordeste 24 Sudeste 0 -- -- 36
2018-08-17 13:00:00 28.8 8 Sur 16 Este 0 -- -- 40
2018-08-17 12:00:00 26.8 5 Este 13 Sudeste 0 -- -- 46
2018-08-17 11:00:00 24.2 4 Sur 8 Sudeste 0 -- -- 57
2018-08-17 10:00:00 20.8 4 Sudoeste 7 Sudoeste 0 -- -- 69
2018-08-17 09:00:00 18.8 3 Norte 9 Norte 0 -- -- 76
2018-08-17 08:00:00 18.1 4 Noroeste 8 Sudeste 0 -- -- 78
2018-08-17 07:00:00 18.3 0 Calma 6 Sudeste 0 -- -- 77
2018-08-17 06:00:00 18.7 4 Noroeste 6 Norte 0 -- -- 67
2018-08-17 05:00:00 19 3 Norte 8 Nordeste 0 -- -- 68
2018-08-17 04:00:00 20.2 0 Calma 13 Nordeste 0 -- -- 64
2018-08-17 03:00:00 20.6 0 Calma 13 Norte 0 -- -- 65
2018-08-17 02:00:00 21 6 Norte 13 Norte 0 -- -- 64
2018-08-17 01:00:00 21.4 0 Calma 18 Norte 0 -- -- 62
2018-08-17 00:00:00 22.2 9 Nordeste 19 Norte 0 -- -- 63
2018-08-16 23:00:00 22.8 2 Norte 12 Sudoeste 0 -- -- 61
2018-08-16 22:00:00 23.1 5 Sudoeste 15 Sur 0 -- -- 59
2018-08-16 21:00:00 24.1 5 Oeste 13 Sudoeste 0 -- -- 56
2018-08-16 20:00:00 25.1 7 Sur 17 Sur 0 -- -- 53
2018-08-16 19:00:00 26.2 6 Sudoeste 21 Sur 0 -- -- 48
2018-08-16 18:00:00 28.1 8 Noroeste 15 Oeste 0 -- -- 40
2018-08-16 17:00:00 27.7 6 Sudoeste 15 Oeste 0 -- -- 45
2018-08-16 16:00:00 25.2 4 Sudoeste 9 Sur 0 -- -- 55
2018-08-16 15:00:00 22 4 Sudoeste 13 Sudoeste 0 -- -- 64
2018-08-16 14:00:00 22.4 4 Oeste 14 Oeste 0 -- -- 63
2018-08-16 13:00:00 22.9 3 Noroeste 9 Sudoeste 0.2 -- -- 60
2018-08-16 12:00:00 21.7 5 Oeste 12 Sudoeste 0.2 -- -- 74
2018-08-16 11:00:00 22.6 5 Noroeste 13 Noroeste 0 -- -- 81
2018-08-16 10:00:00 22 6 Norte 11 Nordeste 0 -- -- 86
2018-08-16 09:00:00 21.3 4 Norte 9 Oeste 0 -- -- 88
2018-08-16 08:00:00 21 0 Calma 6 Sur 0 -- -- 89
2018-08-16 07:00:00 21.3 4 Este 9 Nordeste 1 -- -- 89
2018-08-16 06:00:00 21.8 3 Este 9 Nordeste 0 -- -- 84
2018-08-16 05:00:00 22.1 4 Nordeste 8 Nordeste 0 -- -- 80
2018-08-16 04:00:00 22.2 3 Nordeste 7 Nordeste 0 -- -- 80
2018-08-16 03:00:00 22.4 3 Este 9 Sudeste 0 -- -- 81
2018-08-16 02:00:00 22.7 6 Sudeste 13 Sur 0 -- -- 79
2018-08-16 01:00:00 23.1 6 Este 18 Sudeste 0 -- -- 78
2018-08-16 00:00:00 23.7 3 Sudeste 8 Nordeste 0 -- -- 73
2018-08-15 23:00:00 24.1 0 Calma 16 Sudeste 0 -- -- 67
2018-08-15 22:00:00 24.4 9 Sudeste 18 Sudeste 0 -- -- 67
2018-08-15 21:00:00 24.5 3 Norte 28 Sur 0 -- -- 67
2018-08-15 20:00:00 25.3 15 Sudeste 32 Sur 0 -- -- 63
2018-08-15 19:00:00 28.2 14 Este 39 Sudeste 0 -- -- 47
2018-08-15 18:00:00 31.7 13 Este 28 Este 0 -- -- 44
2018-08-15 17:00:00 31.8 6 Sudeste 15 Oeste 0 -- -- 38
2018-08-15 16:00:00 30.9 4 Sudoeste 22 Sudeste 0 -- -- 41
2018-08-15 15:00:00 32.5 9 Sur 20 Sudeste 0 -- -- 40
2018-08-15 14:00:00 30.2 9 Sudoeste 23 Sudoeste 0 -- -- 44
2018-08-15 13:00:00 29.3 10 Sur 22 Sur 0 -- -- 49
2018-08-15 12:00:00 28.4 5 Sudeste 19 Sudeste 0 -- -- 50
2018-08-15 11:00:00 26.6 9 Sur 19 Sur 0 -- -- 57
2018-08-15 10:00:00 24.7 10 Sudeste 19 Sudeste 0 -- -- 64
2018-08-15 09:00:00 22.3 10 Sudeste 22 Sudeste 0 -- -- 72
2018-08-15 08:00:00 21.7 6 Este 17 Sudeste 0 -- -- 76
2018-08-15 07:00:00 21.5 6 Este 14 Este 0 -- -- 77
2018-08-15 06:00:00 21.5 5 Este 19 Este 0 -- -- 77
2018-08-15 05:00:00 21.5 6 Este 16 Sudeste 0 -- -- 76
2018-08-15 04:00:00 21.3 6 Este 21 Este 0 -- -- 76
2018-08-15 03:00:00 21.2 8 Nordeste 21 Nordeste 0 -- -- 79
2018-08-15 02:00:00 21.8 8 Nordeste 18 Nordeste 0 -- -- 71
2018-08-15 01:00:00 21.9 7 Nordeste 23 Nordeste 0 -- -- 70
2018-08-15 00:00:00 22.1 8 Nordeste 24 Nordeste 0 -- -- 71
2018-08-14 23:00:00 23 9 Nordeste 24 Este 0 -- -- 69
2018-08-14 22:00:00 25 9 Nordeste 20 Nordeste 0 -- -- 62
2018-08-14 21:00:00 28 9 Sudeste 24 Este 0 -- -- 51
2018-08-14 20:00:00 29.6 14 Sudeste 29 Sudeste 0 -- -- 45
2018-08-14 19:00:00 31.7 13 Sudeste 22 Sudeste 0 -- -- 40
2018-08-14 18:00:00 33.6 8 Este 20 Sudeste 0 -- -- 28
2018-08-14 17:00:00 34.4 8 Sudeste 19 Norte 0 -- -- 32
2018-08-14 16:00:00 34.3 8 Norte 25 Oeste 0 -- -- 28
2018-08-14 15:00:00 33.2 5 Norte 15 Noroeste 0 -- -- 32
2018-08-14 14:00:00 31.2 7 Sudoeste 16 Sudeste 0 -- -- 40
2018-08-14 13:00:00 30 6 Sudeste 18 Sudeste 0 -- -- 47
2018-08-14 12:00:00 28.4 8 Este 22 Sudeste 0 -- -- 52
2018-08-14 11:00:00 26.2 9 Este 24 Sudeste 0 -- -- 60
2018-08-14 10:00:00 23.7 6 Este 18 Este 0 -- -- 70
2018-08-14 09:00:00 21.3 4 Este 12 Este 0 -- -- 81
2018-08-14 08:00:00 19.8 2 Este 12 Este 0 -- -- 86
2018-08-14 07:00:00 19.5 2 Este 14 Este 0 -- -- 85
2018-08-14 06:00:00 19.3 3 Nordeste 13 Nordeste 0 -- -- 84
2018-08-14 05:00:00 19.6 4 Este 13 Sudeste 0 -- -- 79
2018-08-14 04:00:00 19.9 7 Nordeste 15 Nordeste 0 -- -- 82
2018-08-14 03:00:00 20.7 7 Nordeste 14 Nordeste 0 -- -- 77
2018-08-14 02:00:00 22.2 2 Este 10 Este 0 -- -- 71
2018-08-14 01:00:00 22.9 5 Nordeste 13 Este 0 -- -- 68
2018-08-14 00:00:00 24.5 3 Este 9 Nordeste 0 -- -- 47
2018-08-13 23:00:00 26.1 3 Este 7 Nordeste 0 -- -- 33
2018-08-13 22:00:00 28.1 2 Sudoeste 8 Oeste 0 -- -- 27
2018-08-13 21:00:00 30.5 5 Oeste 23 Noroeste 0 -- -- 23
2018-08-13 20:00:00 32.3 14 Oeste 24 Oeste 0 -- -- 22
2018-08-13 19:00:00 32.7 9 Oeste 27 Sudoeste 0 -- -- 25
2018-08-13 18:00:00 33.8 10 Sudoeste 30 Oeste 0 -- -- 24
2018-08-13 17:00:00 34.2 10 Sudoeste 27 Noroeste 0 -- -- 25
2018-08-13 16:00:00 33.9 12 Oeste 24 Noroeste 0 -- -- 26
2018-08-13 15:00:00 33.2 12 Sudoeste 29 Sudoeste 0 -- -- 30
2018-08-13 14:00:00 32.2 12 Noroeste 27 Oeste 0 -- -- 32
2018-08-13 13:00:00 30.5 11 Oeste 22 Oeste 0 -- -- 37
2018-08-13 12:00:00 28.6 13 Oeste 22 Oeste 0 -- -- 43
2018-08-13 11:00:00 26.5 12 Oeste 24 Oeste 0 -- -- 53
2018-08-13 10:00:00 23.3 6 Sudoeste 16 Sudoeste 0 -- -- 70
2018-08-13 09:00:00 19.6 2 Sur 6 Noroeste 0 -- -- 83
2018-08-13 08:00:00 18.7 3 Norte 7 Este 0 -- -- 82
2018-08-13 07:00:00 19.3 4 Nordeste 9 Este 0 -- -- 82
2018-08-13 06:00:00 19.8 5 Nordeste 11 Nordeste 0 -- -- 79
2018-08-13 05:00:00 20.7 6 Nordeste 10 Nordeste 0 -- -- 78
2018-08-13 04:00:00 21.4 2 Este 21 Sudeste 0 -- -- 75
2018-08-13 03:00:00 21.8 8 Este 24 Sudeste 0 -- -- 78
2018-08-13 02:00:00 22 16 Sudeste 37 Sudeste 0 -- -- 79
2018-08-13 01:00:00 22.2 8 Este 33 Nordeste 0 -- -- 82
2018-08-13 00:00:00 22.4 15 Nordeste 32 Nordeste 0 -- -- 82
2018-08-12 23:00:00 23.7 7 Este 18 Este 0 -- -- 76
2018-08-12 22:00:00 25.6 6 Este 22 Este 0 -- -- 68
2018-08-12 21:00:00 27 10 Este 28 Sudeste 0 -- -- 63
2018-08-12 20:00:00 28.9 9 Sudeste 22 Este 0 -- -- 58
2018-08-12 19:00:00 30.4 6 Nordeste 29 Norte 0 -- -- 47
2018-08-12 18:00:00 30.9 8 Sur 17 Oeste 0 -- -- 35
2018-08-12 17:00:00 30.6 10 Sudoeste 23 Oeste 0 -- -- 35
2018-08-12 16:00:00 31.1 9 Sudoeste 28 Sudoeste 0 -- -- 35
2018-08-12 15:00:00 33.2 9 Sudoeste 17 Sudoeste 0 -- -- 34
2018-08-12 14:00:00 32.5 6 Sudeste 14 Sudeste 0 -- -- 38
2018-08-12 13:00:00 31 6 Sur 11 Sudoeste 0 -- -- 41
2018-08-12 12:00:00 28.3 3 Sur 8 Este 0 -- -- 47
2018-08-12 11:00:00 26.2 5 Sudeste 10 Sudeste 0 -- -- 53
2018-08-12 10:00:00 22.8 2 Este 7 Este 0 -- -- 80
2018-08-12 09:00:00 20.1 3 Este 10 Este 0 -- -- 91
2018-08-12 08:00:00 19.3 3 Este 7 Este 0 -- -- 92
2018-08-12 07:00:00 19.5 3 Este 12 Este 0 -- -- 92
2018-08-12 06:00:00 19.9 4 Este 12 Este 0 -- -- 88
2018-08-12 05:00:00 20.1 5 Este 10 Este 0 -- -- 88
2018-08-12 04:00:00 20.5 5 Este 11 Este 0 -- -- 88
2018-08-12 03:00:00 21.4 3 Este 15 Este 0 -- -- 91
2018-08-12 02:00:00 21.8 6 Nordeste 15 Nordeste 0 -- -- 89
2018-08-12 01:00:00 22.2 5 Este 12 Nordeste 0 -- -- 89
2018-08-12 00:00:00 22.4 5 Nordeste 17 Nordeste 0 -- -- 87
2018-08-11 23:00:00 23.2 9 Nordeste 17 Nordeste 0 -- -- 83
2018-08-11 22:00:00 24 5 Este 14 Este 0 -- -- 83
2018-08-11 21:00:00 24.6 6 Este 18 Este 0 -- -- 81
2018-08-11 20:00:00 24.2 6 Este 33 Sur 0.8 -- -- 84
2018-08-11 19:00:00 23.4 20 Sur 50 Sudeste 1.4 -- -- 72
2018-08-11 18:00:00 31.7 8 Este 28 Sudeste 0 -- -- 43
2018-08-11 17:00:00 31.9 7 Sudeste 20 Sudeste 0 -- -- 41
2018-08-11 16:00:00 32.1 8 Sur 20 Sur 0 -- -- 39
2018-08-11 15:00:00 32.7 10 Sur 24 Sur 0 -- -- 39
2018-08-11 14:00:00 31.4 12 Sur 22 Sudeste 0 -- -- 42
2018-08-11 13:00:00 30.1 7 Sudeste 26 Sudeste 0 -- -- 47
2018-08-11 12:00:00 28.1 9 Este 22 Sudeste 0 -- -- 53
2018-08-11 11:00:00 26.3 9 Sudeste 23 Sudeste 0 -- -- 63
2018-08-11 10:00:00 24.1 8 Este 22 Sudeste 0 -- -- 71
2018-08-11 09:00:00 21.7 5 Este 14 Este 0 -- -- 85
2018-08-11 08:00:00 20.1 5 Sudeste 10 Sudeste 0 -- -- 90
2018-08-11 07:00:00 20.3 3 Nordeste 12 Nordeste 0 -- -- 88
2018-08-11 06:00:00 20.4 3 Este 15 Este 0 -- -- 89
2018-08-11 05:00:00 20.9 4 Este 11 Nordeste 0 -- -- 87
2018-08-11 04:00:00 21.2 4 Este 14 Este 0 -- -- 87
2018-08-11 03:00:00 21.4 5 Nordeste 12 Este 0 -- -- 86
2018-08-11 02:00:00 21.9 5 Este 18 Este 0 -- -- 82
2018-08-11 01:00:00 22.2 4 Sudeste 18 Este 0 -- -- 82
2018-08-11 00:00:00 22.7 7 Este 20 Nordeste 0 -- -- 79
2018-08-10 23:00:00 23.1 8 Este 24 Sudeste 0 -- -- 76
2018-08-10 22:00:00 23.5 8 Este 24 Este 0 -- -- 74
2018-08-10 21:00:00 23.6 10 Este 28 Nordeste 0 -- -- 74
2018-08-10 20:00:00 24.5 11 Este 37 Este 0 -- -- 71
2018-08-10 19:00:00 26.6 15 Este 40 Este 0 -- -- 61
2018-08-10 18:00:00 29.6 15 Este 39 Sudeste 0 -- -- 48
2018-08-10 17:00:00 31.1 14 Este 31 Este 0 -- -- 43
2018-08-10 16:00:00 31.7 12 Este 31 Este 0 -- -- 42
2018-08-10 15:00:00 31 10 Este 30 Sudeste 0 -- -- 42
2018-08-10 14:00:00 29.8 15 Sudeste 39 Sudeste 0 -- -- 46
2018-08-10 13:00:00 28.2 14 Sudeste 35 Sudeste 0 -- -- 50
2018-08-10 12:00:00 26.1 14 Sudeste 29 Sudeste 0 -- -- 55
2018-08-10 11:00:00 24.3 11 Este 32 Este 0 -- -- 60
2018-08-10 10:00:00 22.2 10 Este 27 Sudeste 0 -- -- 70
2018-08-10 09:00:00 20.8 10 Este 24 Este 0 -- -- 77
2018-08-10 08:00:00 20.8 6 Este 22 Sudeste 0 -- -- 77
2018-08-10 07:00:00 20.7 8 Este 27 Nordeste 0 -- -- 75
2018-08-10 06:00:00 20.9 12 Este 35 Este 0 -- -- 70
2018-08-10 05:00:00 21.8 10 Este 27 Este 0 -- -- 77
2018-08-10 04:00:00 21.7 9 Nordeste 23 Nordeste 0 -- -- 78
2018-08-10 03:00:00 21.9 8 Este 24 Este 0 -- -- 80
2018-08-10 02:00:00 22.2 9 Nordeste 19 Nordeste 0 -- -- 82
2018-08-10 01:00:00 22.6 8 Nordeste 25 Este 0 -- -- 75
2018-08-10 00:00:00 23.3 8 Este 27 Este 0 -- -- 72
2018-08-09 23:00:00 24.4 6 Este 25 Este 0 -- -- 71
2018-08-09 22:00:00 26.9 9 Este 25 Este 0 -- -- 51
2018-08-09 21:00:00 29.8 8 Norte 13 Norte 0 -- -- 24
2018-08-09 20:00:00 31.4 6 Norte 26 Noroeste 0 -- -- 22
2018-08-09 19:00:00 32.3 8 Noroeste 22 Oeste 0 -- -- 22
2018-08-09 18:00:00 34 6 Oeste 25 Sudoeste 0 -- -- 21
2018-08-09 17:00:00 33.5 10 Oeste 33 Oeste 0 -- -- 22
2018-08-09 16:00:00 33.2 14 Oeste 29 Sur 0 -- -- 23
2018-08-09 15:00:00 32.8 12 Oeste 27 Noroeste 0 -- -- 23
2018-08-09 14:00:00 31.4 9 Oeste 27 Oeste 0 -- -- 29
2018-08-09 13:00:00 29.7 13 Oeste 25 Oeste 0 -- -- 32
2018-08-09 12:00:00 28 9 Oeste 19 Oeste 0 -- -- 32
2018-08-09 11:00:00 26.1 8 Sudoeste 17 Oeste 0 -- -- 38
2018-08-09 10:00:00 23.5 6 Sudoeste 14 Sudoeste 0 -- -- 48
2018-08-09 09:00:00 20.8 5 Sudoeste 10 Oeste 0 -- -- 75
2018-08-09 08:00:00 19.8 0 Calma 5 Oeste 0 -- -- 83
2018-08-09 07:00:00 20.2 0 Calma 6 Este 0 -- -- 79
2018-08-09 06:00:00 20.9 2 Este 12 Sudeste 0 -- -- 79
2018-08-09 05:00:00 20.9 6 Este 16 Nordeste 0 -- -- 81
2018-08-09 04:00:00 22.1 3 Este 13 Noroeste 0 -- -- 68
2018-08-09 03:00:00 22.5 6 Noroeste 18 Oeste 0 -- -- 67
2018-08-09 02:00:00 22.5 10 Oeste 25 Oeste 0 -- -- 71
2018-08-09 01:00:00 22 4 Este 13 Este 0 -- -- 79
2018-08-09 00:00:00 23.4 8 Nordeste 24 Este 0 -- -- 65
2018-08-08 23:00:00 23.9 9 Este 24 Este 0 -- -- 64
2018-08-08 22:00:00 23.5 9 Este 30 Nordeste 0 -- -- 68
2018-08-08 21:00:00 27.4 10 Sur 22 Nordeste 0 -- -- 35
2018-08-08 20:00:00 27.8 9 Sudeste 33 Sudeste 0 -- -- 34
2018-08-08 19:00:00 26.9 14 Sur 33 Sudeste 0 -- -- 45
2018-08-08 18:00:00 25.5 20 Sudeste 50 Sudeste 0 -- -- 47
2018-08-08 17:00:00 27.5 12 Nordeste 44 Norte 0 -- -- 55
2018-08-08 16:00:00 30.6 8 Sudeste 36 Nordeste 0.4 -- -- 52
2018-08-08 15:00:00 33.4 16 Nordeste 28 Nordeste 0 -- -- 41
2018-08-08 14:00:00 33.9 7 Este 22 Sudeste 0 -- -- 35
2018-08-08 13:00:00 31.8 8 Este 17 Nordeste 0 -- -- 44
2018-08-08 12:00:00 29.1 8 Nordeste 17 Nordeste 0 -- -- 48
2018-08-08 11:00:00 26.7 4 Nordeste 12 Nordeste 0 -- -- 54
2018-08-08 10:00:00 24.5 3 Este 12 Este 0 -- -- 61
2018-08-08 09:00:00 21.4 4 Este 13 Este 0 -- -- 68
2018-08-08 08:00:00 19 6 Nordeste 18 Nordeste 0 -- -- 72
2018-08-08 07:00:00 18.2 5 Nordeste 14 Nordeste 0 -- -- 72
2018-08-08 06:00:00 18.8 6 Nordeste 15 Nordeste 0 -- -- 70
2018-08-08 05:00:00 19.2 8 Nordeste 18 Nordeste 0 -- -- 69
2018-08-08 04:00:00 19.9 12 Nordeste 20 Nordeste 0 -- -- 64
2018-08-08 03:00:00 21.6 5 Norte 12 Sur 0 -- -- 60
2018-08-08 02:00:00 21.8 5 Este 18 Nordeste 0 -- -- 59
2018-08-08 01:00:00 22.4 8 Este 20 Nordeste 0 -- -- 53
2018-08-08 00:00:00 23.4 6 Este 19 Este 0 -- -- 47
2018-08-07 23:00:00 23.7 9 Este 31 Sudeste 0 -- -- 49
2018-08-07 22:00:00 23.2 14 Este 35 Nordeste 0 -- -- 52
2018-08-07 21:00:00 23.9 14 Nordeste 37 Nordeste 0 -- -- 68
2018-08-07 20:00:00 26.2 12 Este 55 Sudoeste 0.2 -- -- 68
2018-08-07 19:00:00 31.1 24 Sudoeste 49 Oeste 0 -- -- 26
2018-08-07 18:00:00 34.7 10 Sur 24 Sur 0 -- -- 27
2018-08-07 17:00:00 37 7 Oeste 18 Sur 0 -- -- 23
2018-08-07 16:00:00 37.3 10 Sudoeste 21 Sudoeste 0 -- -- 24
2018-08-07 15:00:00 36.9 5 Sudeste 19 Noroeste 0 -- -- 28
2018-08-07 14:00:00 35.7 5 Noroeste 36 Nordeste 0 -- -- 29
2018-08-07 13:00:00 33.3 4 Oeste 12 Sudoeste 0 -- -- 34
2018-08-07 12:00:00 31.3 4 Sur 9 Este 0 -- -- 37
2018-08-07 11:00:00 28.1 5 Este 12 Nordeste 0 -- -- 50
2018-08-07 10:00:00 24.1 5 Nordeste 11 Este 0 -- -- 64
2018-08-07 09:00:00 20.8 3 Este 8 Nordeste 0 -- -- 75
2018-08-07 08:00:00 19.7 2 Este 9 Este 0 -- -- 77
2018-08-07 07:00:00 19.9 5 Este 12 Este 0 -- -- 77
2018-08-07 06:00:00 19.6 4 Este 15 Este 0 -- -- 73
2018-08-07 05:00:00 20.3 9 Nordeste 14 Nordeste 0 -- -- 74
2018-08-07 04:00:00 21 0 Calma 9 Nordeste 0 -- -- 69
2018-08-07 03:00:00 21.7 4 Este 10 Nordeste 0 -- -- 65
2018-08-07 02:00:00 22.1 8 Nordeste 17 Nordeste 0 -- -- 58
2018-08-07 01:00:00 24.1 7 Este 17 Sudeste 0 -- -- 51
2018-08-07 00:00:00 23.8 6 Sudeste 29 Norte 0 -- -- 51
2018-08-06 23:00:00 25.5 5 Oeste 25 Sudeste 0 -- -- 44
2018-08-06 22:00:00 24.7 21 Sudeste 51 Sudeste 1 -- -- 43
2018-08-06 21:00:00 25.9 23 Nordeste 51 Nordeste 0 -- -- 39
2018-08-06 20:00:00 26.2 21 Nordeste 59 Nordeste 0 -- -- 38
2018-08-06 19:00:00 34 22 Sur 52 Sudeste 0 -- -- 32
2018-08-06 18:00:00 38.3 13 Sudeste 38 Sudeste 0 -- -- 23
2018-08-06 17:00:00 38.8 8 Sudoeste 22 Sudoeste 0 -- -- 20
2018-08-06 16:00:00 38.7 5 Sur 19 Sur 0 -- -- 20
2018-08-06 15:00:00 37.6 12 Sur 26 Sur 0 -- -- 24
2018-08-06 14:00:00 36.5 9 Sudoeste 18 Sur 0 -- -- 25
2018-08-06 13:00:00 35.3 9 Sudoeste 19 Sudoeste 0 -- -- 27
2018-08-06 12:00:00 33.7 4 Norte 13 Sudeste 0 -- -- 31
2018-08-06 11:00:00 31.2 4 Sur 8 Sur 0 -- -- 38
2018-08-06 10:00:00 27.4 3 Este 8 Este 0 -- -- 47
2018-08-06 09:00:00 24 3 Este 7 Sudeste 0 -- -- 57
2018-08-06 08:00:00 22.8 3 Este 10 Nordeste 0 -- -- 63
2018-08-06 07:00:00 23.1 4 Este 12 Este 0 -- -- 61
2018-08-06 06:00:00 23.3 6 Nordeste 13 Nordeste 0 -- -- 62
2018-08-06 05:00:00 23.9 4 Nordeste 20 Nordeste 0 -- -- 61
2018-08-06 04:00:00 26.1 5 Nordeste 17 Sudeste 0 -- -- 52
2018-08-06 03:00:00 26.7 9 Sudeste 15 Sudeste 0 -- -- 46
2018-08-06 02:00:00 26.6 3 Sudeste 16 Sur 0 -- -- 50
2018-08-06 01:00:00 27.6 6 Sudeste 14 Sudeste 0 -- -- 54
2018-08-06 00:00:00 29.1 8 Nordeste 16 Este 0 -- -- 42
2018-08-05 23:00:00 29.6 5 Este 21 Sudoeste 0 -- -- 39
2018-08-05 22:00:00 30.6 13 Sur 36 Sur 0 -- -- 37
2018-08-05 21:00:00 32.1 13 Sur 39 Sudoeste 0 -- -- 34
2018-08-05 20:00:00 33.1 19 Sur 40 Sudeste 0 -- -- 32
2018-08-05 19:00:00 33.9 18 Sur 38 Sudeste 0 -- -- 32
2018-08-05 18:00:00 37.1 9 Este 16 Este 0 -- -- 25
2018-08-05 17:00:00 37.3 5 Oeste 19 Sur 0 -- -- 22
2018-08-05 16:00:00 37.3 9 Sudoeste 27 Sudoeste 0 -- -- 22
2018-08-05 15:00:00 36.9 9 Sur 24 Sur 0 -- -- 25
2018-08-05 14:00:00 35.2 8 Oeste 27 Sur 0 -- -- 26
2018-08-05 13:00:00 35.2 11 Sur 23 Sudeste 0 -- -- 28
2018-08-05 12:00:00 33.6 12 Sur 23 Este 0 -- -- 30
2018-08-05 11:00:00 30.2 6 Nordeste 17 Nordeste 0 -- -- 35
2018-08-05 10:00:00 26.6 4 Este 11 Nordeste 0 -- -- 47
2018-08-05 09:00:00 22.7 5 Nordeste 12 Nordeste 0 -- -- 54
2018-08-05 08:00:00 20.3 0 Calma 5 Este 0 -- -- 62
2018-08-05 07:00:00 20.8 0 Calma 6 Nordeste 0 -- -- 61
2018-08-05 06:00:00 21.5 4 Este 8 Nordeste 0 -- -- 58
2018-08-05 05:00:00 22.2 2 Este 5 Este 0 -- -- 57
2018-08-05 04:00:00 23 0 Calma 9 Este -- -- -- 55
2018-08-05 03:00:00 24.1 3 Nordeste 6 Nordeste 0 -- -- 52
2018-08-05 02:00:00 24.8 4 Este 8 Nordeste 0 -- -- 50
2018-08-05 01:00:00 25 6 Nordeste 15 Nordeste 0 -- -- 49
2018-08-05 00:00:00 25.9 9 Nordeste 18 Nordeste 0 -- -- 44
2018-08-04 23:00:00 27.8 5 Nordeste 20 Este 0 -- -- 39
2018-08-04 22:00:00 30.1 9 Este 26 Sudeste 0 -- -- 37
2018-08-04 21:00:00 31.8 12 Sudeste 31 Sudeste 0 -- -- 34
2018-08-04 20:00:00 34.1 13 Sudeste 35 Sudeste 0 -- -- 30
2018-08-04 19:00:00 35.8 4 Este 12 Sudoeste 0 -- -- 20
2018-08-04 18:00:00 37 9 Sudoeste 17 Oeste 0 -- -- 20
2018-08-04 17:00:00 38 5 Norte 17 Norte 0 -- -- 19
2018-08-04 16:00:00 37.2 6 Este 15 Norte 0 -- -- 19
2018-08-04 15:00:00 37.1 4 Oeste 17 Nordeste 0 -- -- 21
2018-08-04 14:00:00 35.5 5 Noroeste 16 Sudeste 0 -- -- 25
2018-08-04 13:00:00 34.5 6 Este 18 Nordeste 0 -- -- 31
2018-08-04 12:00:00 31.9 6 Este 14 Sudeste 0 -- -- 36
2018-08-04 11:00:00 29 4 Este 10 Este 0 -- -- 47
2018-08-04 10:00:00 24.9 4 Este 8 Nordeste 0 -- -- 60
2018-08-04 09:00:00 21.5 2 Nordeste 5 Nordeste 0 -- -- 69
2018-08-04 08:00:00 20 0 Calma 3 Este 0 -- -- 73
2018-08-04 07:00:00 20.2 0 Calma 4 Sudeste 0 -- -- 71
2018-08-04 06:00:00 21.1 0 Calma 11 Este 0 -- -- 69
2018-08-04 05:00:00 21.1 5 Nordeste 14 Nordeste 0 -- -- 69
2018-08-04 04:00:00 21.3 5 Nordeste 10 Nordeste 0 -- -- 68
2018-08-04 03:00:00 22.1 7 Nordeste 15 Nordeste 0 -- -- 66
2018-08-04 02:00:00 22.6 8 Nordeste 19 Nordeste 0 -- -- 64
2018-08-04 01:00:00 23.7 8 Nordeste 22 Este 0 -- -- 63
2018-08-04 00:00:00 24.5 9 Nordeste 21 Nordeste 0 -- -- 62
2018-08-03 23:00:00 26 8 Nordeste 24 Nordeste 0 -- -- 59
2018-08-03 22:00:00 27.4 8 Nordeste 25 Nordeste 0 -- -- 54
2018-08-03 21:00:00 30.1 12 Este 32 Nordeste 0 -- -- 47
2018-08-03 20:00:00 33.8 12 Este 29 Este 0 -- -- 39
2018-08-03 19:00:00 36.8 14 Este 29 Sudeste 0 -- -- 30
2018-08-03 18:00:00 38.5 10 Sudeste 18 Este 0 -- -- 19
2018-08-03 17:00:00 39.8 9 Sudoeste 21 Sudoeste 0 -- -- 19
2018-08-03 16:00:00 39.7 6 Nordeste 22 Norte 0 -- -- 19
2018-08-03 15:00:00 38.9 5 Nordeste 18 Noroeste 0 -- -- 20
2018-08-03 14:00:00 36.8 3 Nordeste 16 Norte 0 -- -- 24
2018-08-03 13:00:00 35 5 Sur 17 Sudoeste 0 -- -- 28
2018-08-03 12:00:00 32.4 6 Sudoeste 14 Sudoeste 0 -- -- 33
2018-08-03 11:00:00 30.1 6 Oeste 12 Noroeste 0 -- -- 38
2018-08-03 10:00:00 26.3 2 Noroeste 7 Norte 0 -- -- 47
2018-08-03 09:00:00 22.7 0 Calma 5 Norte 0 -- -- 60
2018-08-03 08:00:00 20.5 0 Calma 5 Este 0 -- -- 65
2018-08-03 07:00:00 20.7 0 Calma 4 Este 0 -- -- 63
2018-08-03 06:00:00 21.5 0 Calma 3 Este 0 -- -- 61
2018-08-03 05:00:00 22.4 0 Calma 2 Este 0 -- -- 58
2018-08-03 04:00:00 22.8 0 Calma 5 Nordeste 0 -- -- 57
2018-08-03 03:00:00 23.4 2 Este 14 Nordeste 0 -- -- 55
2018-08-03 02:00:00 24.2 8 Nordeste 13 Nordeste 0 -- -- 53
2018-08-03 01:00:00 25.4 8 Nordeste 13 Nordeste 0 -- -- 49
2018-08-03 00:00:00 27.5 5 Este 19 Sudeste 0 -- -- 44
2018-08-02 23:00:00 28.8 12 Sudeste 22 Sudeste 0 -- -- 42
2018-08-02 22:00:00 30.6 6 Este 20 Sudeste 0 -- -- 38
2018-08-02 21:00:00 32.6 12 Sudeste 34 Sudeste 0 -- -- 33
2018-08-02 20:00:00 35 13 Sudeste 23 Sudeste 0 -- -- 28
2018-08-02 19:00:00 36.3 8 Este 19 Sudeste 0 -- -- 23
2018-08-02 18:00:00 37.5 6 Este 21 Sudeste 0 -- -- 22
2018-08-02 17:00:00 38.3 8 Este 18 Nordeste 0 -- -- 20
2018-08-02 16:00:00 38.7 13 Sudeste 24 Sudeste 0 -- -- 20
2018-08-02 15:00:00 37.8 7 Sudeste 22 Nordeste 0 -- -- 22
2018-08-02 14:00:00 37 6 Nordeste 21 Este 0 -- -- 22
2018-08-02 13:00:00 35.6 9 Este 19 Sudeste 0 -- -- 23
2018-08-02 12:00:00 33.7 6 Este 17 Nordeste 0 -- -- 25
2018-08-02 11:00:00 31.1 6 Este 13 Este 0 -- -- 30
2018-08-02 10:00:00 26.3 5 Este 13 Nordeste 0 -- -- 41
2018-08-02 09:00:00 21.8 5 Nordeste 10 Nordeste 0 -- -- 50
2018-08-02 08:00:00 19.1 3 Este 7 Este 0 -- -- 59
2018-08-02 07:00:00 19.3 2 Este 9 Este 0 -- -- 58
2018-08-02 06:00:00 19.9 4 Este 9 Este 0 -- -- 57
2018-08-02 05:00:00 20.5 4 Este 11 Nordeste 0 -- -- 58
2018-08-02 04:00:00 21.2 3 Este 17 Nordeste 0 -- -- 57
2018-08-02 03:00:00 22.1 9 Nordeste 15 Este 0 -- -- 54
2018-08-02 02:00:00 23 4 Nordeste 15 Este 0 -- -- 53
2018-08-02 01:00:00 24.3 3 Sudeste 15 Nordeste 0 -- -- 48
2018-08-02 00:00:00 25.4 5 Este 17 Nordeste 0 -- -- 43
2018-08-01 23:00:00 27.1 6 Nordeste 11 Nordeste 0 -- -- 35
2018-08-01 22:00:00 29.1 6 Este 22 Este 0 -- -- 34
2018-08-01 21:00:00 31 13 Sudeste 33 Sudeste 0 -- -- 33
2018-08-01 20:00:00 33.1 14 Sudeste 30 Sudeste 0 -- -- 26
2018-08-01 19:00:00 34.7 18 Sudeste 33 Sudeste 0 -- -- 26
2018-08-01 18:00:00 36.7 11 Sudeste 25 Este 0 -- -- 23
2018-08-01 17:00:00 37.4 9 Este 30 Este 0 -- -- 23
2018-08-01 16:00:00 38 12 Sudeste 30 Sudeste 0 -- -- 24
2018-08-01 15:00:00 37.8 8 Sudeste 23 Sudeste 0 -- -- 18
2018-08-01 14:00:00 36.7 4 Norte 15 Sudeste 0 -- -- 20
2018-08-01 13:00:00 35.1 9 Sudoeste 15 Sur 0 -- -- 19
2018-08-01 12:00:00 33.1 4 Sudeste 12 Sudeste 0 -- -- 21
2018-08-01 11:00:00 30.2 5 Este 12 Sudeste 0 -- -- 27
2018-08-01 10:00:00 26.3 5 Este 13 Este 0 -- -- 40
2018-08-01 09:00:00 22.3 4 Este 14 Este 0 -- -- 54
2018-08-01 08:00:00 20 5 Este 14 Este 0 -- -- 57
2018-08-01 07:00:00 19.9 8 Este 19 Este 0 -- -- 63
2018-08-01 06:00:00 20.3 8 Este 21 Este 0 -- -- 59
2018-08-01 05:00:00 21.2 8 Este 15 Este 0 -- -- 65
2018-08-01 04:00:00 20.3 9 Nordeste 18 Nordeste 0 -- -- 75
2018-08-01 03:00:00 20.7 9 Nordeste 20 Nordeste 0 -- -- 77
2018-08-01 02:00:00 22.1 11 Nordeste 23 Nordeste 0 -- -- 74
2018-08-01 01:00:00 23.2 9 Nordeste 19 Nordeste 0 -- -- 71
2018-08-01 00:00:00 24.8 9 Nordeste 21 Nordeste 0 -- -- 65
2018-07-31 23:00:00 27.3 10 Nordeste 18 Nordeste 0 -- -- 54
2018-07-31 22:00:00 30.3 6 Sudeste 31 Sudeste 0 -- -- 27
2018-07-31 21:00:00 32.2 19 Sudeste 36 Sur 0 -- -- 27
2018-07-31 20:00:00 33.9 21 Sudeste 35 Sudeste 0 -- -- 33
2018-07-31 19:00:00 35.6 7 Sudoeste 21 Sudoeste 0 -- -- 22
2018-07-31 18:00:00 37.2 9 Sudoeste 24 Sur 0 -- -- 18
2018-07-31 17:00:00 38.4 7 Sur 24 Noroeste 0 -- -- 17
2018-07-31 16:00:00 37.4 13 Oeste 30 Noroeste 0 -- -- 19
2018-07-31 15:00:00 37.5 5 Nordeste 21 Noroeste 0 -- -- 20
2018-07-31 14:00:00 35.8 4 Nordeste 14 Oeste 0 -- -- 21
2018-07-31 13:00:00 33.7 3 Sudeste 10 Norte 0 -- -- 25
2018-07-31 12:00:00 30.7 4 Noroeste 10 Oeste 0 -- -- 30
2018-07-31 11:00:00 26.8 6 Oeste 15 Oeste 0 -- -- 36
2018-07-31 10:00:00 23.7 8 Oeste 14 Oeste 0 -- -- 42
2018-07-31 09:00:00 20.1 0 Calma -- -- 0 -- -- 56
2018-07-31 08:00:00 18.3 0 Calma -- -- 0 -- -- 71
2018-07-31 07:00:00 18.8 0 Calma -- -- 0 -- -- 75
2018-07-31 06:00:00 19.5 0 Calma 6 Este 0 -- -- 79
2018-07-31 05:00:00 20.2 3 Nordeste 8 Este 0 -- -- 79
2018-07-31 04:00:00 21.4 3 Este 12 Este 0 -- -- 76
2018-07-31 03:00:00 21.4 6 Nordeste 13 Este 0 -- -- 73
2018-07-31 02:00:00 23.1 6 Nordeste 16 Nordeste 0 -- -- 69
2018-07-31 01:00:00 24.5 8 Nordeste 13 Este 0 -- -- 63
2018-07-31 00:00:00 27.4 6 Sudeste 21 Sudeste 0 -- -- 39
2018-07-30 23:00:00 28.5 11 Sur 30 Sur 0 -- -- 38
2018-07-30 22:00:00 29.9 7 Sudeste 21 Sudeste 0 -- -- 45
2018-07-30 21:00:00 32.5 6 Norte 16 Noroeste 0 -- -- 20
2018-07-30 20:00:00 34 7 Noroeste 18 Noroeste 0 -- -- 19
2018-07-30 19:00:00 34.4 6 Oeste 19 Oeste 0 -- -- 18
2018-07-30 18:00:00 35.7 9 Oeste 23 Oeste 0 -- -- 17
2018-07-30 17:00:00 36.5 10 Noroeste 22 Norte 0 -- -- 18
2018-07-30 16:00:00 35.4 8 Sudoeste 24 Oeste 0 -- -- 19
2018-07-30 15:00:00 35 6 Sur 23 Oeste 0 -- -- 19
2018-07-30 14:00:00 33.8 6 Sudoeste 20 Noroeste 0 -- -- 19
2018-07-30 13:00:00 31.4 7 Oeste 17 Noroeste 0 -- -- 20
2018-07-30 12:00:00 28.7 8 Oeste 18 Oeste 0 -- -- 23
2018-07-30 11:00:00 26 6 Oeste 19 Oeste 0 -- -- 24
2018-07-30 10:00:00 23.4 5 Oeste 17 Oeste 0 -- -- 25
2018-07-30 09:00:00 20.4 8 Oeste 13 Oeste 0 -- -- 27
2018-07-30 08:00:00 18.3 4 Oeste 8 Oeste 0 -- -- 27
2018-07-30 07:00:00 18.6 5 Oeste 14 Oeste 0 -- -- 27
2018-07-30 06:00:00 19.2 6 Oeste 14 Oeste 0 -- -- 26
2018-07-30 05:00:00 20 8 Oeste 14 Oeste 0 -- -- 26
2018-07-30 04:00:00 21 9 Oeste 15 Oeste 0 -- -- 26
2018-07-30 03:00:00 22.4 7 Oeste 13 Oeste 0 -- -- 24
2018-07-30 02:00:00 23.3 8 Oeste 19 Oeste 0 -- -- 24
2018-07-30 01:00:00 24.3 9 Oeste 15 Oeste 0 -- -- 23
2018-07-30 00:00:00 25.4 4 Oeste 12 Noroeste 0 -- -- 22
2018-07-29 23:00:00 26.6 0 Calma 9 Noroeste 0 -- -- 21
2018-07-29 22:00:00 28.1 5 Noroeste 15 Noroeste 0 -- -- 19
2018-07-29 21:00:00 30.9 11 Noroeste 28 Noroeste 0 -- -- 18
2018-07-29 20:00:00 32.5 17 Noroeste 34 Noroeste 0 -- -- 23
2018-07-29 19:00:00 33.7 18 Noroeste 40 Noroeste 0 -- -- 25
2018-07-29 18:00:00 34.6 12 Noroeste 41 Noroeste 0 -- -- 24
2018-07-29 17:00:00 34.8 12 Oeste 31 Noroeste 0 -- -- 22
2018-07-29 16:00:00 34.1 14 Oeste 31 Oeste 0 -- -- 22
2018-07-29 15:00:00 33.2 11 Noroeste 27 Oeste 0 -- -- 23
2018-07-29 14:00:00 32.3 12 Oeste 28 Oeste 0 -- -- 24
2018-07-29 13:00:00 31 13 Noroeste 24 Oeste 0 -- -- 26
2018-07-29 12:00:00 28.3 9 Oeste 21 Sudoeste 0 -- -- 29
2018-07-29 11:00:00 25.6 10 Oeste 18 Oeste 0 -- -- 30
2018-07-29 10:00:00 22.8 7 Oeste 15 Oeste 0 -- -- 31
2018-07-29 09:00:00 20 5 Oeste 10 Oeste 0 -- -- 37
2018-07-29 08:00:00 18 4 Oeste 10 Oeste 0 -- -- 40
2018-07-29 07:00:00 18.2 5 Oeste 12 Oeste 0 -- -- 39
2018-07-29 06:00:00 19.1 7 Oeste 10 Oeste 0 -- -- 38
2018-07-29 05:00:00 20.1 4 Oeste 7 Oeste 0 -- -- 36
2018-07-29 04:00:00 21.3 3 Oeste 8 Oeste 0 -- -- 34
2018-07-29 03:00:00 22.5 3 Sudoeste 10 Oeste 0 -- -- 32
2018-07-29 02:00:00 24 5 Oeste 11 Oeste 0 -- -- 30
2018-07-29 01:00:00 25 5 Oeste 8 Sudoeste 0 -- -- 30
2018-07-29 00:00:00 26.1 2 Sudoeste 9 Oeste 0 -- -- 29
2018-07-28 23:00:00 27.8 3 Sudoeste 5 Nordeste 0 -- -- 27
2018-07-28 22:00:00 30.1 4 Norte 9 Norte 0 -- -- 24
2018-07-28 21:00:00 32.5 5 Norte 19 Norte 0 -- -- 21
2018-07-28 20:00:00 34 9 Noroeste 21 Noroeste 0 -- -- 19
2018-07-28 19:00:00 34.8 10 Noroeste 28 Noroeste 0 -- -- 19
2018-07-28 18:00:00 35.9 15 Noroeste 29 Noroeste 0 -- -- 17
2018-07-28 17:00:00 36 13 Oeste 29 Oeste 0 -- -- 18
2018-07-28 16:00:00 35.7 16 Oeste 30 Noroeste 0 -- -- 18
2018-07-28 15:00:00 34.8 14 Noroeste 31 Oeste 0 -- -- 19
2018-07-28 14:00:00 33.7 14 Noroeste 32 Oeste 0 -- -- 21
2018-07-28 13:00:00 32.7 12 Noroeste 28 Oeste 0 -- -- 24
2018-07-28 12:00:00 30.1 11 Oeste 21 Sudoeste 0 -- -- 26
2018-07-28 11:00:00 26.8 8 Sudoeste 18 Sudoeste 0 -- -- 32
2018-07-28 10:00:00 23.7 8 Sudoeste 16 Oeste 0 -- -- 33
2018-07-28 09:00:00 20.7 6 Sudoeste 13 Sudoeste 0 -- -- 37
2018-07-28 08:00:00 19.2 7 Oeste 13 Oeste 0 -- -- 38
2018-07-28 07:00:00 19.3 6 Oeste 13 Oeste 0 -- -- 39
2018-07-28 06:00:00 20.1 9 Oeste 17 Oeste 0 -- -- 38
2018-07-28 05:00:00 21 9 Oeste 14 Oeste 0 -- -- 39
2018-07-28 04:00:00 22.3 7 Oeste 12 Sudoeste 0 -- -- 41
2018-07-28 03:00:00 23.7 8 Oeste 17 Oeste 0 -- -- 39
2018-07-28 02:00:00 24.9 5 Oeste 13 Sudoeste 0 -- -- 44
2018-07-28 01:00:00 26.2 4 Sudoeste 9 Sur 0 -- -- 39
2018-07-28 00:00:00 27.2 3 Sur 16 Sudoeste 0 -- -- 36
2018-07-27 23:00:00 28.6 8 Sudeste 15 Sur 0 -- -- 32
2018-07-27 22:00:00 30.4 5 Sudoeste 31 Sur 0 -- -- 27
2018-07-27 21:00:00 32.7 10 Sur 23 Sudoeste 0 -- -- 20
2018-07-27 20:00:00 34.1 6 Sudoeste 24 Sudoeste 0 -- -- 18
2018-07-27 19:00:00 35 11 Sudoeste 24 Sudoeste 0 -- -- 18
2018-07-27 18:00:00 36.5 11 Sudoeste 29 Sudoeste 0 -- -- 18
2018-07-27 17:00:00 37.6 13 Oeste 28 Sudoeste 0 -- -- 18
2018-07-27 16:00:00 37.7 6 Sudoeste 17 Sur 0 -- -- 19
2018-07-27 15:00:00 36.5 7 Sudoeste 21 Oeste 0 -- -- 21
2018-07-27 14:00:00 34.5 6 Noroeste 19 Noroeste 0 -- -- 24
2018-07-27 13:00:00 32.4 5 Noroeste 14 Oeste 0 -- -- 27
2018-07-27 12:00:00 30 6 Oeste 18 Oeste 0 -- -- 31
2018-07-27 11:00:00 27.8 9 Oeste 17 Noroeste 0 -- -- 32
2018-07-27 10:00:00 24.4 4 Sudoeste 6 Sudoeste 0 -- -- 42
2018-07-27 09:00:00 20.2 2 Sudeste 5 Sudeste 0 -- -- 60
2018-07-27 08:00:00 18.2 0 Calma 8 Este 0 -- -- 68
2018-07-27 07:00:00 18.4 3 Este 10 Este 0 -- -- 68
2018-07-27 06:00:00 19 0 Calma 3 Este 0 -- -- 67
2018-07-27 05:00:00 20 0 Calma 6 Este 0 -- -- 65
2018-07-27 04:00:00 21.3 3 Este 9 Este 0 -- -- 62
2018-07-27 03:00:00 21.9 5 Nordeste 10 Este 0 -- -- 61
2018-07-27 02:00:00 22.8 6 Nordeste 12 Nordeste 0 -- -- 58
2018-07-27 01:00:00 24.5 3 Nordeste 10 Norte 0 -- -- 52
2018-07-27 00:00:00 26.9 3 Nordeste 18 Sur 0 -- -- 42
2018-07-26 23:00:00 28.3 5 Sudeste 24 Sudeste 0 -- -- 40
2018-07-26 22:00:00 29.8 12 Sur 33 Sur 0 -- -- 39
2018-07-26 21:00:00 31.1 14 Sudeste 31 Sudeste 0 -- -- 44
2018-07-26 20:00:00 33.4 11 Este 26 Sudeste 0 -- -- 38
2018-07-26 19:00:00 35.1 8 Norte 16 Sudoeste 0 -- -- 21
2018-07-26 18:00:00 36.1 6 Oeste 24 Oeste 0 -- -- 20
2018-07-26 17:00:00 37.3 9 Noroeste 22 Noroeste 0 -- -- 20
2018-07-26 16:00:00 36 9 Oeste 25 Sudoeste 0 -- -- 22
2018-07-26 15:00:00 35 6 Oeste 19 Noroeste 0 -- -- 22
2018-07-26 14:00:00 32.7 8 Oeste 18 Oeste 0 -- -- 25
2018-07-26 13:00:00 30.8 7 Oeste 19 Oeste 0 -- -- 29
2018-07-26 12:00:00 28 7 Noroeste 15 Norte 0 -- -- 38
2018-07-26 11:00:00 24.9 3 Sur 8 Sur 0 -- -- 56
2018-07-26 10:00:00 21.4 3 Nordeste 9 Este 0 -- -- 81
2018-07-26 09:00:00 19.3 2 Este 9 Este 0 -- -- 92
2018-07-26 08:00:00 18.4 3 Este 13 Nordeste 0 -- -- 93
2018-07-26 07:00:00 18.3 2 Este 11 Este 0 -- -- 88
2018-07-26 06:00:00 18.6 9 Nordeste 18 Este 0 -- -- 88
2018-07-26 05:00:00 19.6 3 Este 14 Este 0 -- -- 86
2018-07-26 04:00:00 19.7 9 Nordeste 18 Este 0 -- -- 86
2018-07-26 03:00:00 20.5 6 Este 16 Nordeste 0 -- -- 83
2018-07-26 02:00:00 21.1 6 Nordeste 17 Nordeste 0 -- -- 80
2018-07-26 01:00:00 21.7 12 Nordeste 18 Nordeste 0 -- -- 77
2018-07-26 00:00:00 23.1 8 Este 24 Este 0 -- -- 70
2018-07-25 23:00:00 25 12 Nordeste 22 Nordeste 0 -- -- 64
2018-07-25 22:00:00 27.3 8 Este 26 Sudeste 0 -- -- 54
2018-07-25 21:00:00 29.1 11 Sudeste 27 Sudeste 0 -- -- 51
2018-07-25 20:00:00 30.9 10 Este 31 Sudeste 0 -- -- 45
2018-07-25 19:00:00 32.4 13 Este 32 Sudeste 0 -- -- 41
2018-07-25 18:00:00 33.9 15 Este 31 Nordeste 0 -- -- 35
2018-07-25 17:00:00 35.5 10 Sudeste 26 Sudeste 0 -- -- 31
2018-07-25 16:00:00 34.3 7 Este 24 Sudeste 0 -- -- 35
2018-07-25 15:00:00 34.4 8 Sudeste 24 Este 0 -- -- 35
2018-07-25 14:00:00 34.3 10 Este 23 Sudeste 0 -- -- 35
2018-07-25 13:00:00 32.7 10 Sudeste 24 Sudeste 0 -- -- 39
2018-07-25 12:00:00 29.6 9 Este 24 Sudeste 0 -- -- 44
2018-07-25 11:00:00 27.2 6 Sudeste 13 Sudeste 0 -- -- 45
2018-07-25 10:00:00 22.1 2 Oeste 5 Sudoeste 0 -- -- 42
2018-07-25 09:00:00 19.1 0 Calma 4 Norte 0 -- -- 60
2018-07-25 08:00:00 17.5 0 Calma 4 Sudoeste 0 -- -- 62
2018-07-25 07:00:00 17.9 0 Calma 6 Nordeste 0 -- -- 64
2018-07-25 06:00:00 18.8 0 Calma 9 Nordeste 0 -- -- 75
2018-07-25 05:00:00 19.7 4 Este 13 Este 0 -- -- 78
2018-07-25 04:00:00 21 4 Este 8 Este 0 -- -- 66
2018-07-25 03:00:00 21.9 2 Este 9 Norte 0 -- -- 47
2018-07-25 02:00:00 23 4 Norte 13 Nordeste 0 -- -- 34
2018-07-25 01:00:00 24.5 0 Calma 5 Este 0 -- -- 33
2018-07-25 00:00:00 26 3 Oeste 4 Norte 0 -- -- 30
2018-07-24 23:00:00 27.7 5 Norte 11 Nordeste 0 -- -- 27
2018-07-24 22:00:00 29.7 8 Norte 12 Norte 0 -- -- 24
2018-07-24 21:00:00 32.1 6 Norte 14 Norte 0 -- -- 23
2018-07-24 20:00:00 33.3 5 Norte 19 Noroeste 0 -- -- 22
2018-07-24 19:00:00 34.3 11 Noroeste 23 Noroeste 0 -- -- 21
2018-07-24 18:00:00 35.7 11 Noroeste 28 Noroeste 0 -- -- 20
2018-07-24 17:00:00 34.9 11 Sudoeste 25 Noroeste 0 -- -- 21
2018-07-24 16:00:00 34.6 12 Oeste 27 Oeste 0 -- -- 21
2018-07-24 15:00:00 34.6 10 Noroeste 30 Noroeste 0 -- -- 23
2018-07-24 14:00:00 32.9 14 Oeste 29 Oeste 0 -- -- 24
2018-07-24 13:00:00 31.8 9 Oeste 24 Oeste 0 -- -- 27
2018-07-24 12:00:00 29.4 10 Sudoeste 22 Oeste 0 -- -- 32
2018-07-24 11:00:00 26.9 11 Oeste 18 Oeste 0 -- -- 36
2018-07-24 10:00:00 24 4 Sur 12 Oeste 0 -- -- 46
2018-07-24 09:00:00 21.1 4 Sudoeste 8 Oeste 0 -- -- 60
2018-07-24 08:00:00 19.4 2 Oeste 7 Noroeste 0 -- -- 64
2018-07-24 07:00:00 19.7 3 Noroeste 9 Oeste 0 -- -- 62
2018-07-24 06:00:00 20.6 5 Oeste 8 Oeste 0 -- -- 60
2018-07-24 05:00:00 21.3 5 Sudoeste 10 Sudoeste 0 -- -- 60
2018-07-24 04:00:00 21.1 0 Calma 8 Nordeste 0 -- -- 64
2018-07-24 03:00:00 21.9 4 Nordeste 10 Nordeste 0 -- -- 58
2018-07-24 02:00:00 23.8 6 Norte 11 Norte 0 -- -- 52
2018-07-24 01:00:00 25.3 3 Este 20 Sudeste 0 -- -- 49
2018-07-24 00:00:00 26.3 9 Sudeste 24 Sudeste 0 -- -- 47
2018-07-23 23:00:00 27.2 11 Sur 30 Sur 0 -- -- 43
2018-07-23 22:00:00 28.6 14 Sur 37 Sur 0 -- -- 40
2018-07-23 21:00:00 30.9 12 Sur 31 Sur 0 -- -- 35
2018-07-23 20:00:00 33.2 8 Sudoeste 15 Sur 0 -- -- 27
2018-07-23 19:00:00 34.1 10 Oeste 21 Oeste 0 -- -- 23
2018-07-23 18:00:00 35 8 Oeste 22 Sudoeste 0 -- -- 21
2018-07-23 17:00:00 35.5 8 Sur 22 Sudoeste 0 -- -- 22
2018-07-23 16:00:00 35 9 Sur 29 Oeste 0 -- -- 22
2018-07-23 15:00:00 34.4 6 Oeste 26 Sur 0 -- -- 23
2018-07-23 14:00:00 33.2 10 Oeste 24 Oeste 0 -- -- 29
2018-07-23 13:00:00 31.9 8 Sur 21 Noroeste 0 -- -- 33
2018-07-23 12:00:00 29.5 4 Sur 11 Sudoeste 0 -- -- 41
2018-07-23 11:00:00 26.6 4 Sur 10 Sur 0 -- -- 54
2018-07-23 10:00:00 23.3 0 Calma 6 Nordeste 0 -- -- 69
2018-07-23 09:00:00 20.3 3 Nordeste 8 Nordeste 0 -- -- 84
2018-07-23 08:00:00 18.6 3 Este 7 Este 0 -- -- 88
2018-07-23 07:00:00 18.4 3 Nordeste 12 Nordeste 0 -- -- 88
2018-07-23 06:00:00 18.8 3 Nordeste 8 Nordeste 0 -- -- 86
2018-07-23 05:00:00 19.6 4 Nordeste 10 Este 0 -- -- 83
2018-07-23 04:00:00 20.3 3 Nordeste 10 Sudeste 0 -- -- 81
2018-07-23 03:00:00 20.5 4 Este 12 Este 0 -- -- 81
2018-07-23 02:00:00 20.3 5 Este 15 Nordeste 0 -- -- 81
2018-07-23 01:00:00 20.5 7 Nordeste 17 Nordeste 0 -- -- 79
2018-07-23 00:00:00 21.1 8 Nordeste 19 Nordeste 0 -- -- 75
2018-07-22 23:00:00 22.2 7 Nordeste 18 Nordeste 0 -- -- 70
2018-07-22 22:00:00 23.6 8 Nordeste 18 Este 0 -- -- 65
2018-07-22 21:00:00 25.3 7 Este 21 Este 0 -- -- 59
2018-07-22 20:00:00 26.2 8 Este 28 Sudeste 0 -- -- 55
2018-07-22 19:00:00 27.5 15 Sudeste 35 Sudeste 0 -- -- 51
2018-07-22 18:00:00 28.7 15 Este 35 Este 0 -- -- 48
2018-07-22 17:00:00 30.3 14 Este 28 Este 0 -- -- 44
2018-07-22 16:00:00 31.7 11 Sudeste 22 Este 0 -- -- 40
2018-07-22 15:00:00 29.9 7 Este 21 Sudeste 0 -- -- 43
2018-07-22 14:00:00 29.3 9 Este 24 Este 0 -- -- 45
2018-07-22 13:00:00 27.6 9 Este 21 Sudeste 0 -- -- 51
2018-07-22 12:00:00 25.3 9 Este 23 Sudeste 0 -- -- 59
2018-07-22 11:00:00 23.5 7 Este 30 Sudeste 0 -- -- 67
2018-07-22 10:00:00 22.7 9 Este 23 Este 0 -- -- 73
2018-07-22 09:00:00 21.9 4 Este 21 Sudeste 0 -- -- 78
2018-07-22 08:00:00 20.5 5 Este 14 Este 0 -- -- 85
2018-07-22 07:00:00 20.3 5 Este 12 Nordeste 0 -- -- 85
2018-07-22 06:00:00 20.6 3 Este 13 Sudeste 0 -- -- 83
2018-07-22 05:00:00 20.9 3 Nordeste 16 Este 0 -- -- 81
2018-07-22 04:00:00 21.3 4 Este 24 Sudeste 0 -- -- 81
2018-07-22 03:00:00 21.8 8 Sudeste 16 Este 0 -- -- 79
2018-07-22 02:00:00 21.8 5 Este 23 Este 0 -- -- 78
2018-07-22 01:00:00 21.9 10 Este 28 Este 0 -- -- 77
2018-07-22 00:00:00 22.6 8 Este 22 Este 0 -- -- 71
2018-07-21 23:00:00 24.1 6 Este 25 Este 0 -- -- 66
2018-07-21 22:00:00 25.9 10 Este 28 Sudeste 0 -- -- 62
2018-07-21 21:00:00 28 14 Sudeste 28 Sudeste 0 -- -- 53
2018-07-21 20:00:00 31.4 8 Norte 21 Noroeste 0 -- -- 24
2018-07-21 19:00:00 32.4 13 Noroeste 28 Noroeste 0 -- -- 24
2018-07-21 18:00:00 33.4 9 Oeste 30 Noroeste 0 -- -- 24
2018-07-21 17:00:00 33.1 10 Oeste 30 Noroeste 0 -- -- 25
2018-07-21 16:00:00 32.9 14 Oeste 29 Oeste 0 -- -- 24
2018-07-21 15:00:00 31.9 12 Noroeste 28 Oeste 0 -- -- 25
2018-07-21 14:00:00 31 8 Oeste 24 Sudoeste 0 -- -- 29
2018-07-21 13:00:00 29.9 9 Sudoeste 24 Sudoeste 0 -- -- 31
2018-07-21 12:00:00 27.3 8 Oeste 14 Oeste 0 -- -- 39
2018-07-21 11:00:00 25.1 5 Oeste 10 Noroeste 0 -- -- 48
2018-07-21 10:00:00 22.2 3 Sudoeste 5 Sur 0 -- -- 67
2018-07-21 09:00:00 19 3 Sur 5 Sudoeste 0 -- -- 74
2018-07-21 08:00:00 17.1 0 Calma 5 Sudoeste 0 -- -- 61
2018-07-21 07:00:00 17.4 2 Noroeste 7 Nordeste 0 -- -- 77
2018-07-21 06:00:00 18.3 2 Norte 5 Nordeste 0 -- -- 75
2018-07-21 05:00:00 18.7 2 Este 9 Sudeste 0 -- -- 64
2018-07-21 04:00:00 19.5 4 Este 15 Nordeste 0 -- -- 55
2018-07-21 03:00:00 20.4 6 Nordeste 14 Nordeste 0 -- -- 71
2018-07-21 02:00:00 22.4 3 Norte 22 Nordeste 0 -- -- 32
2018-07-21 01:00:00 23.8 7 Oeste 13 Sudoeste 0 -- -- 29
2018-07-21 00:00:00 25.2 3 Sur 11 Sudoeste 0 -- -- 28
2018-07-20 23:00:00 26.9 3 Sur 16 Oeste 0 -- -- 25
2018-07-20 22:00:00 28.1 6 Noroeste 26 Noroeste 0 -- -- 24
2018-07-20 21:00:00 30.4 15 Noroeste 31 Noroeste -- -- -- 22
2018-07-20 20:00:00 32.2 17 Noroeste 34 Noroeste 0 -- -- 21
2018-07-20 19:00:00 33.6 14 Noroeste 42 Noroeste 0 -- -- 18
2018-07-20 18:00:00 34.3 12 Oeste 29 Noroeste 0 -- -- 16
2018-07-20 17:00:00 34.8 5 Oeste 27 Oeste 0 -- -- 18
2018-07-20 16:00:00 34.3 8 Oeste 23 Oeste 0 -- -- 17
2018-07-20 15:00:00 33.5 7 Oeste 26 Sudoeste 0 -- -- 18
2018-07-20 14:00:00 31.9 9 Oeste 27 Noroeste 0 -- -- 22
2018-07-20 13:00:00 29.9 11 Oeste 19 Oeste 0 -- -- 24
2018-07-20 12:00:00 28.1 8 Oeste 20 Oeste 0 -- -- 26
2018-07-20 11:00:00 25.5 10 Oeste 17 Oeste 0 -- -- 30
2018-07-20 10:00:00 22.5 5 Sudoeste 11 Oeste 0 -- -- 43
2018-07-20 09:00:00 18.2 5 Oeste 9 Oeste 0 -- -- 48
2018-07-20 08:00:00 16.5 5 Noroeste 8 Oeste 0 -- -- 64
2018-07-20 07:00:00 16.9 4 Oeste 8 Sudoeste 0 -- -- 73
2018-07-20 06:00:00 17.6 3 Sudoeste 8 Oeste 0 -- -- 79
2018-07-20 05:00:00 18.6 0 Calma 6 Nordeste 0 -- -- 77
2018-07-20 04:00:00 19.5 3 Nordeste 9 Nordeste 0 -- -- 78
2018-07-20 03:00:00 20.1 5 Nordeste 9 Nordeste 0 -- -- 71
2018-07-20 02:00:00 21.5 2 Este 10 Nordeste 0 -- -- 68
2018-07-20 01:00:00 22.2 6 Nordeste 13 Este 0 -- -- 63
2018-07-20 00:00:00 24.1 6 Nordeste 16 Nordeste 0 -- -- 56